Pritchett, Texas
Current Conditions -  °F | °C
As of 10:15 PM on Friday 19 Dec 2014 (Local Time) from KJDD Reporting Station
Haze Haze  
Wind Chill: 46°   Ceiling: 500
Heat Index: 46°   Visibility: 4mi
Dew Point: 46°   Wind: 3mph
Humidity: 100%   Direction: 20°NNE
Pressure: 30.22"   Gusts: NA
Location:  32.6267°N, 95.0888°W
Report Text: KJDD 200415Z AUTO 02003KT 4SM BR OVC005 08/08 A3022 RMK AO2
Loading
Personal Weather Stations






























Interactive Weather Map New forecast layout! Learn more

10-Day Weather Forecast

Advertisements
Track Severe Weather on mobile